createdAt,value
2023-01-21T00:00:39.771Z,1.68
2023-01-21T00:04:41.419Z,1.71
2023-01-21T00:08:43.332Z,1.70
2023-01-21T00:12:44.884Z,1.72
2023-01-21T00:16:46.426Z,1.74
2023-01-21T00:20:47.986Z,1.75
2023-01-21T00:24:49.495Z,1.71
2023-01-21T00:28:51.076Z,1.75
2023-01-21T00:32:52.630Z,1.71
2023-01-21T00:36:56.446Z,1.72
2023-01-21T00:41:09.969Z,1.72
2023-01-21T00:45:11.559Z,1.71
2023-01-21T00:49:13.125Z,1.71
2023-01-21T00:53:14.666Z,1.70
2023-01-21T00:57:16.326Z,1.70
2023-01-21T01:01:20.722Z,1.71
2023-01-21T01:05:22.355Z,1.72
2023-01-21T01:09:23.974Z,1.74
2023-01-21T01:13:26.367Z,1.77
2023-01-21T01:17:27.939Z,1.81
2023-01-21T01:21:29.546Z,1.82
2023-01-21T01:25:31.089Z,1.86
2023-01-21T01:29:32.720Z,1.89
2023-01-21T01:33:34.447Z,1.90
2023-01-21T01:37:35.986Z,1.95
2023-01-21T01:41:37.615Z,1.95
2023-01-21T01:45:39.132Z,2.01
2023-01-21T01:49:42.032Z,2.00
2023-01-21T01:53:46.710Z,2.01
2023-01-21T01:57:51.443Z,2.04
2023-01-21T02:01:53.506Z,2.08
2023-01-21T02:05:55.552Z,2.08
2023-01-21T02:09:57.214Z,2.08
2023-01-21T02:13:59.951Z,2.05
2023-01-21T02:18:33.406Z,2.02
2023-01-21T02:23:16.802Z,1.98
2023-01-21T02:27:51.387Z,1.93
2023-01-21T02:32:37.884Z,1.89
2023-01-21T02:36:54.554Z,1.89
2023-01-21T02:41:08.529Z,1.88
2023-01-21T02:45:25.212Z,1.83
2023-01-21T02:49:51.814Z,1.83
2023-01-21T02:53:53.396Z,1.75
2023-01-21T02:57:59.158Z,1.71
2023-01-21T03:02:25.703Z,1.65
2023-01-21T03:06:38.937Z,1.54
2023-01-21T03:10:43.945Z,1.49
2023-01-21T03:15:29.234Z,1.39
2023-01-21T03:19:42.806Z,1.29
2023-01-21T03:23:49.164Z,1.24
2023-01-21T03:27:52.058Z,1.21
2023-01-21T03:31:58.901Z,1.21
2023-01-21T03:36:07.343Z,1.16
2023-01-21T03:40:18.887Z,1.06
2023-01-21T03:44:21.132Z,1.00
2023-01-21T03:48:40.598Z,0.88
2023-01-21T03:52:44.361Z,0.80
2023-01-21T03:56:45.897Z,0.71
2023-01-21T04:00:49.159Z,0.64
2023-01-21T04:04:53.101Z,0.62
2023-01-21T04:08:54.663Z,0.60
2023-01-21T04:12:56.499Z,0.59
2023-01-21T04:16:58.154Z,0.53
2023-01-21T04:20:59.773Z,0.51
2023-01-21T04:25:01.388Z,0.51
2023-01-21T04:29:03.143Z,0.56
2023-01-21T04:33:04.744Z,0.51
2023-01-21T04:37:06.340Z,0.59
2023-01-21T04:41:07.894Z,0.59
2023-01-21T04:45:09.863Z,0.48
2023-01-21T04:49:11.397Z,0.33
2023-01-21T04:53:13.098Z,0.23
2023-01-21T04:57:14.705Z,0.19
2023-01-21T05:01:16.297Z,0.07
2023-01-21T05:05:17.890Z,0.07
2023-01-21T05:09:19.489Z,-0.01
2023-01-21T05:13:21.209Z,-0.03
2023-01-21T05:17:22.835Z,-0.06
2023-01-21T05:21:24.475Z,-0.13
2023-01-21T05:25:26.008Z,-0.13
2023-01-21T05:29:27.573Z,-0.21
2023-01-21T05:33:35.669Z,-0.21
2023-01-21T05:37:37.185Z,-0.24
2023-01-21T05:41:38.730Z,-0.27
2023-01-21T05:45:40.265Z,-0.31
2023-01-21T05:49:41.803Z,-0.31
2023-01-21T05:53:45.172Z,-0.35
2023-01-21T05:57:46.726Z,-0.41
2023-01-21T06:01:48.313Z,-0.47
2023-01-21T06:05:50.351Z,-0.52
2023-01-21T06:09:51.952Z,-0.55
2023-01-21T06:13:53.495Z,-0.58
2023-01-21T06:17:55.651Z,-0.59
2023-01-21T06:21:57.305Z,-0.63
2023-01-21T06:26:02.833Z,-0.63
2023-01-21T06:30:09.667Z,-0.65
2023-01-21T06:34:12.653Z,-0.73
2023-01-21T06:38:14.802Z,-0.76
2023-01-21T06:42:17.922Z,-0.93
2023-01-21T06:46:19.524Z,-1.00
2023-01-21T06:50:21.116Z,-1.07
2023-01-21T06:54:22.667Z,-1.10
2023-01-21T06:58:24.376Z,-1.26
2023-01-21T07:02:26.492Z,-1.33
2023-01-21T07:06:28.148Z,-1.46
2023-01-21T07:10:29.799Z,-1.46
2023-01-21T07:14:31.444Z,-1.57
2023-01-21T07:18:32.994Z,-1.61
2023-01-21T07:22:35.109Z,-1.64
2023-01-21T07:26:38.216Z,-1.57
2023-01-21T07:30:39.914Z,-1.53
2023-01-21T07:34:41.916Z,-1.53
2023-01-21T07:38:43.514Z,-1.57
2023-01-21T07:42:51.000Z,-1.57
2023-01-21T07:46:53.018Z,-1.61
2023-01-21T07:50:59.007Z,-1.56
2023-01-21T07:55:01.653Z,-1.51
2023-01-21T07:59:03.265Z,-1.49
2023-01-21T08:03:04.907Z,-1.44
2023-01-21T08:07:11.955Z,-1.38
2023-01-21T08:11:14.432Z,-1.38
2023-01-21T08:15:16.685Z,-1.31
2023-01-21T08:19:18.381Z,-1.21
2023-01-21T08:23:19.933Z,-1.05
2023-01-21T08:27:21.631Z,-1.00
2023-01-21T08:31:23.290Z,-0.89
2023-01-21T08:35:24.982Z,-0.90
2023-01-21T08:39:26.525Z,-0.92
2023-01-21T08:43:28.085Z,-0.92
2023-01-21T08:47:29.667Z,-0.85
2023-01-21T08:51:31.237Z,-0.76
2023-01-21T08:55:33.184Z,-0.53
2023-01-21T08:59:35.176Z,-0.34
2023-01-21T09:03:36.923Z,-0.09
2023-01-21T09:07:38.499Z,0.04
2023-01-21T09:11:40.070Z,0.08
2023-01-21T09:15:44.489Z,0.26
2023-01-21T09:19:46.114Z,0.33
2023-01-21T09:23:47.705Z,0.53
2023-01-21T09:27:49.247Z,0.70
2023-01-21T09:31:50.805Z,0.82
2023-01-21T09:35:56.780Z,0.90
2023-01-21T09:39:58.336Z,0.89
2023-01-21T09:44:24.482Z,0.98
2023-01-21T09:48:34.428Z,1.10
2023-01-21T09:52:43.221Z,1.28
2023-01-21T09:56:57.506Z,1.31
2023-01-21T10:01:07.003Z,1.42
2023-01-21T10:05:39.083Z,1.35
2023-01-21T10:09:51.961Z,1.38
2023-01-21T10:14:02.092Z,1.34
2023-01-21T10:18:09.849Z,1.31
2023-01-21T10:22:35.139Z,1.28
2023-01-21T10:26:36.780Z,1.35
2023-01-21T10:30:42.185Z,1.42
2023-01-21T10:34:51.271Z,1.35
2023-01-21T10:39:06.598Z,1.26
2023-01-21T10:43:38.092Z,1.42
2023-01-21T10:47:50.695Z,1.57
2023-01-21T10:52:14.173Z,1.75
2023-01-21T10:56:43.692Z,1.85
2023-01-21T11:00:48.655Z,2.00
2023-01-21T11:04:51.147Z,2.19
2023-01-21T11:08:57.101Z,2.51
2023-01-21T11:12:58.842Z,2.59
2023-01-21T11:17:00.515Z,2.71
2023-01-21T11:21:17.299Z,2.79
2023-01-21T11:25:47.842Z,2.68
2023-01-21T11:29:50.296Z,2.87
2023-01-21T11:33:52.866Z,3.05
2023-01-21T11:37:54.418Z,3.12
2023-01-21T11:41:58.653Z,2.98
2023-01-21T11:46:00.541Z,2.79
2023-01-21T11:50:22.846Z,2.66
2023-01-21T11:54:24.925Z,2.69
2023-01-21T11:58:31.896Z,2.90
2023-01-21T12:02:39.676Z,2.73
2023-01-21T12:06:47.213Z,2.55
2023-01-21T12:10:50.335Z,2.58
2023-01-21T12:14:57.982Z,2.48
2023-01-21T12:19:26.439Z,2.55
2023-01-21T12:23:41.162Z,2.59
2023-01-21T12:28:03.834Z,2.51
2023-01-21T12:32:15.411Z,2.27
2023-01-21T12:36:24.793Z,2.14
2023-01-21T12:40:47.709Z,2.04
2023-01-21T12:44:53.810Z,1.88
2023-01-21T12:49:15.474Z,1.83
2023-01-21T12:53:35.463Z,1.75
2023-01-21T12:57:43.437Z,1.72
2023-01-21T13:02:18.235Z,1.65
2023-01-21T13:06:52.344Z,1.60
2023-01-21T13:11:03.292Z,1.65
2023-01-21T13:15:18.713Z,1.77
2023-01-21T13:19:20.493Z,1.83
2023-01-21T13:23:42.904Z,1.90
2023-01-21T13:27:59.001Z,2.00
2023-01-21T13:32:24.100Z,2.01
2023-01-21T13:36:55.046Z,1.93
2023-01-21T13:41:26.256Z,1.85
2023-01-21T13:45:48.046Z,1.75
2023-01-21T13:49:55.664Z,1.77
2023-01-21T13:54:18.575Z,1.82
2023-01-21T13:58:57.502Z,1.83
2023-01-21T14:03:15.974Z,1.82
2023-01-21T14:07:42.072Z,1.75
2023-01-21T14:11:51.313Z,1.71
2023-01-21T14:16:16.386Z,1.71
2023-01-21T14:20:31.101Z,1.65
2023-01-21T14:25:06.609Z,1.68
2023-01-21T14:29:12.017Z,1.54
2023-01-21T14:33:20.105Z,1.44
2023-01-21T14:37:30.991Z,1.46
2023-01-21T14:42:09.239Z,1.47
2023-01-21T14:46:25.742Z,1.44
2023-01-21T14:50:45.822Z,1.49
2023-01-21T14:54:48.635Z,1.43
2023-01-21T14:59:15.091Z,1.38
2023-01-21T15:03:27.274Z,1.38
2023-01-21T15:07:33.811Z,1.42
2023-01-21T15:11:37.257Z,1.42
2023-01-21T15:16:07.277Z,1.39
2023-01-21T15:20:44.785Z,1.34
2023-01-21T15:25:15.406Z,1.28
2023-01-21T15:29:37.744Z,1.25
2023-01-21T15:33:44.799Z,1.24
2023-01-21T15:37:48.943Z,1.20
2023-01-21T15:42:18.623Z,1.17
2023-01-21T15:46:38.645Z,1.16
2023-01-21T15:51:01.940Z,1.14
2023-01-21T15:55:17.893Z,1.10
2023-01-21T15:59:43.075Z,1.04
2023-01-21T16:03:57.599Z,1.02
2023-01-21T16:08:02.194Z,0.99
2023-01-21T16:12:12.880Z,0.95
2023-01-21T16:16:29.513Z,0.93
2023-01-21T16:20:32.630Z,0.96
2023-01-21T16:24:40.603Z,1.10
2023-01-21T16:28:46.594Z,1.02
2023-01-21T16:33:06.060Z,1.00
2023-01-21T16:37:11.730Z,1.00
2023-01-21T16:41:13.781Z,1.02
2023-01-21T16:45:19.138Z,1.06
2023-01-21T16:49:21.011Z,1.07
2023-01-21T16:53:24.023Z,1.07
2023-01-21T16:57:31.625Z,1.04
2023-01-21T17:01:33.341Z,1.04
2023-01-21T17:05:36.720Z,1.06
2023-01-21T17:09:38.781Z,1.06
2023-01-21T17:13:43.180Z,1.00
2023-01-21T17:17:45.352Z,1.06
2023-01-21T17:21:51.090Z,1.06
2023-01-21T17:26:02.214Z,1.07
2023-01-21T17:30:26.312Z,1.11
2023-01-21T17:34:30.799Z,1.11
2023-01-21T17:38:39.187Z,1.13
2023-01-21T17:42:41.006Z,1.10
2023-01-21T17:46:55.733Z,1.13
2023-01-21T17:51:08.101Z,1.08
2023-01-21T17:55:34.529Z,1.08
2023-01-21T17:59:41.488Z,1.04
2023-01-21T18:03:43.387Z,1.06
2023-01-21T18:07:45.025Z,1.06
2023-01-21T18:11:51.582Z,1.06
2023-01-21T18:15:54.202Z,1.04
2023-01-21T18:19:57.859Z,1.02
2023-01-21T18:23:59.664Z,1.06
2023-01-21T18:28:01.298Z,1.07
2023-01-21T18:32:02.930Z,1.06
2023-01-21T18:36:05.327Z,1.06
2023-01-21T18:40:07.544Z,1.06
2023-01-21T18:44:09.406Z,1.04
2023-01-21T18:48:15.274Z,1.04
2023-01-21T18:52:18.810Z,0.99
2023-01-21T18:56:21.651Z,1.00
2023-01-21T19:00:26.260Z,0.99
2023-01-21T19:04:27.866Z,1.00
2023-01-21T19:08:29.512Z,1.02
2023-01-21T19:12:31.148Z,1.02
2023-01-21T19:16:32.853Z,1.04
2023-01-21T19:20:35.857Z,1.02
2023-01-21T19:24:37.381Z,1.02
2023-01-21T19:28:39.111Z,1.00
2023-01-21T19:32:40.853Z,0.99
2023-01-21T19:36:42.535Z,0.98
2023-01-21T19:40:45.604Z,0.96
2023-01-21T19:44:47.192Z,0.95
2023-01-21T19:48:50.472Z,0.92
2023-01-21T19:52:53.897Z,0.89
2023-01-21T19:56:55.582Z,0.81
2023-01-21T20:00:57.408Z,0.78
2023-01-21T20:04:59.012Z,0.74
2023-01-21T20:09:00.942Z,0.74
2023-01-21T20:13:02.764Z,0.70
2023-01-21T20:17:04.992Z,0.68
2023-01-21T20:21:06.515Z,0.64
2023-01-21T20:25:13.808Z,0.60
2023-01-21T20:29:16.563Z,0.60
2023-01-21T20:33:20.421Z,0.57
2023-01-21T20:37:22.044Z,0.57
2023-01-21T20:41:23.748Z,0.57
2023-01-21T20:45:33.145Z,0.56
2023-01-21T20:49:34.816Z,0.56
2023-01-21T20:53:36.786Z,0.60
2023-01-21T20:57:38.357Z,0.59
2023-01-21T21:01:40.112Z,0.59
2023-01-21T21:05:41.870Z,0.62
2023-01-21T21:09:43.466Z,0.63
2023-01-21T21:13:48.113Z,0.67
2023-01-21T21:17:49.848Z,0.64
2023-01-21T21:21:51.458Z,0.70
2023-01-21T21:25:53.130Z,0.70
2023-01-21T21:29:58.709Z,0.72
2023-01-21T21:34:00.543Z,0.72
2023-01-21T21:38:14.338Z,0.71
2023-01-21T21:42:34.633Z,0.67
2023-01-21T21:46:55.897Z,0.68
2023-01-21T21:50:57.800Z,0.64
2023-01-21T21:54:59.520Z,0.64
2023-01-21T21:59:01.181Z,0.60
2023-01-21T22:03:02.850Z,0.60
2023-01-21T22:07:04.368Z,0.59
2023-01-21T22:11:08.813Z,0.56
2023-01-21T22:15:10.672Z,0.56
2023-01-21T22:19:12.338Z,0.56
2023-01-21T22:23:13.847Z,0.56
2023-01-21T22:27:15.368Z,0.52
2023-01-21T22:31:19.723Z,0.52
2023-01-21T22:35:21.390Z,0.51
2023-01-21T22:39:22.966Z,0.48
2023-01-21T22:43:24.671Z,0.45
2023-01-21T22:47:28.565Z,0.48
2023-01-21T22:51:30.374Z,0.44
2023-01-21T22:55:32.293Z,0.38
2023-01-21T22:59:33.951Z,0.40
2023-01-21T23:03:37.206Z,0.40
2023-01-21T23:07:38.765Z,0.40
2023-01-21T23:11:41.512Z,0.40
2023-01-21T23:15:47.126Z,0.38
2023-01-21T23:19:48.667Z,0.35
2023-01-21T23:23:50.463Z,0.35
2023-01-21T23:27:52.106Z,0.35
2023-01-21T23:31:53.823Z,0.34
2023-01-21T23:35:55.911Z,0.34
2023-01-21T23:39:57.633Z,0.35
2023-01-21T23:44:00.788Z,0.37
2023-01-21T23:48:02.623Z,0.38
2023-01-21T23:52:05.705Z,0.41
2023-01-21T23:56:17.304Z,0.40
